Time;durP1;ratioP1;P1;durP2;ratioP2;P2;SDS_P1;SDS_P2;PMS_P1;PMS_P2;Temp;Humidity;BMP_temperature;BMP_pressure;BME280_temperature;BME280_humidity;BME280_pressure;Samples;Min_cycle;Max_cycle;Signal;HPM_P1;HPM_P2
2023/05/28 00:00:28;;;;;;;13.53;5.33;;;14.40;99.90;;;;;;5052838;28;20540;-80
2023/05/28 00:02:56;;;;;;;10.17;6.30;;;14.40;99.90;;;;;;5045942;28;20496;-81
2023/05/28 00:05:23;;;;;;;10.47;6.60;;;14.30;99.90;;;;;;5042789;28;20487;-81
2023/05/28 00:07:50;;;;;;;7.43;5.27;;;14.30;99.90;;;;;;5038861;28;20519;-80
2023/05/28 00:10:17;;;;;;;9.20;5.97;;;14.30;99.90;;;;;;5045486;28;20480;-79
2023/05/28 00:12:45;;;;;;;16.27;7.20;;;14.30;99.90;;;;;;5037634;28;20666;-80
2023/05/28 00:15:12;;;;;;;10.40;5.80;;;14.10;99.90;;;;;;5049435;28;20486;-79
2023/05/28 00:17:38;;;;;;;10.13;5.43;;;14.10;99.90;;;;;;5038511;28;20447;-78
2023/05/28 00:20:06;;;;;;;10.20;5.90;;;14.10;99.90;;;;;;5042287;28;20477;-81
2023/05/28 00:22:33;;;;;;;8.50;5.83;;;14.00;99.90;;;;;;5038625;28;20463;-79
2023/05/28 00:25:00;;;;;;;9.07;5.20;;;14.00;99.90;;;;;;5043664;28;20457;-79
2023/05/28 00:27:27;;;;;;;10.90;6.50;;;13.90;99.90;;;;;;5057174;28;20459;-79
2023/05/28 00:29:55;;;;;;;10.67;5.60;;;13.90;99.90;;;;;;5051125;28;21020;-79
2023/05/28 00:32:21;;;;;;;10.90;5.47;;;13.80;99.90;;;;;;5035548;28;20459;-78
2023/05/28 00:34:48;;;;;;;9.90;5.80;;;13.80;1.00;;;;;;5037807;28;20448;-80
2023/05/28 00:37:15;;;;;;;10.30;4.70;;;13.80;1.00;;;;;;5047287;28;20478;-79
2023/05/28 00:39:42;;;;;;;10.20;5.23;;;13.70;1.00;;;;;;5038376;28;20487;-82
2023/05/28 00:42:12;;;;;;;10.50;6.20;;;13.70;1.00;;;;;;5038471;28;20895;-79
2023/05/28 00:44:39;;;;;;;9.77;5.67;;;13.60;1.00;;;;;;5056037;28;20451;-79
2023/05/28 00:47:07;;;;;;;12.03;5.60;;;13.60;1.00;;;;;;5043598;28;20459;-79
2023/05/28 00:49:34;;;;;;;12.80;5.30;;;13.60;1.00;;;;;;5044885;28;20466;-79
2023/05/28 00:52:02;;;;;;;7.80;6.00;;;13.50;1.00;;;;;;5054613;28;20546;-81
2023/05/28 00:54:30;;;;;;;12.43;6.37;;;13.50;1.00;;;;;;5043654;28;20451;-80
2023/05/28 00:56:58;;;;;;;9.37;5.30;;;13.40;1.00;;;;;;5051573;28;20574;-81
2023/05/28 00:59:26;;;;;;;10.50;6.97;;;13.40;1.00;;;;;;5062508;28;20491;-80
2023/05/28 01:01:54;;;;;;;14.20;6.13;;;13.40;1.00;;;;;;5061525;28;20451;-80
2023/05/28 01:04:24;;;;;;;13.83;6.20;;;13.40;1.00;;;;;;5041490;28;20479;-79
2023/05/28 01:06:51;;;;;;;9.80;5.33;;;13.30;1.00;;;;;;5043189;28;20537;-79
2023/05/28 01:09:18;;;;;;;7.60;6.33;;;13.30;1.00;;;;;;5042836;28;20478;-81
2023/05/28 01:11:49;;;;;;;9.40;6.50;;;13.30;1.00;;;;;;5047512;28;20452;-79
2023/05/28 01:14:16;;;;;;;11.93;7.17;;;13.20;1.00;;;;;;5046998;28;20529;-81
2023/05/28 01:16:44;;;;;;;12.63;8.10;;;13.20;1.00;;;;;;5061340;28;20494;-79
2023/05/28 01:19:16;;;;;;;16.43;7.47;;;13.20;1.00;;;;;;5045786;28;20993;-79
2023/05/28 01:21:46;;;;;;;16.70;7.40;;;13.10;1.00;;;;;;5047868;28;21033;-79
2023/05/28 01:24:15;;;;;;;11.50;5.83;;;13.10;1.00;;;;;;5054265;28;20963;-79
2023/05/28 01:26:43;;;;;;;7.93;5.73;;;13.20;1.00;;;;;;5060625;28;20483;-81
2023/05/28 01:29:17;;;;;;;9.13;5.70;;;13.10;1.00;;;;;;5046772;28;21065;-79
2023/05/28 01:31:44;;;;;;;8.80;7.23;;;13.10;1.00;;;;;;5042921;28;21003;-80
2023/05/28 01:34:12;;;;;;;11.77;5.87;;;13.10;1.00;;;;;;5051318;28;20445;-80
2023/05/28 01:36:44;;;;;;;8.67;6.70;;;13.10;1.00;;;;;;5054306;28;20477;-79
2023/05/28 01:39:15;;;;;;;11.37;7.10;;;13.00;1.00;;;;;;5040923;28;21023;-80
2023/05/28 01:41:43;;;;;;;11.90;7.00;;;13.00;1.00;;;;;;5040197;28;20453;-79
2023/05/28 01:44:12;;;;;;;10.33;7.63;;;13.00;1.00;;;;;;5033679;28;20440;-80
2023/05/28 01:46:40;;;;;;;10.37;7.47;;;13.00;1.00;;;;;;5059493;28;20479;-80
2023/05/28 01:49:07;;;;;;;10.50;8.17;;;13.00;1.00;;;;;;5046565;28;20567;-79
2023/05/28 01:51:34;;;;;;;15.40;9.90;;;12.90;1.00;;;;;;5046137;28;20455;-79
2023/05/28 01:54:01;;;;;;;13.97;9.00;;;12.90;1.00;;;;;;5058349;28;20494;-78
2023/05/28 01:56:29;;;;;;;13.80;9.50;;;12.80;1.00;;;;;;5041151;28;20499;-78
2023/05/28 01:58:56;;;;;;;12.93;8.00;;;12.80;1.00;;;;;;5057231;28;20559;-78
2023/05/28 02:01:28;;;;;;;15.70;8.70;;;12.80;1.00;;;;;;5057111;28;20460;-81
2023/05/28 02:03:55;;;;;;;12.83;7.60;;;12.80;1.00;;;;;;5038897;28;20461;-80
2023/05/28 02:06:22;;;;;;;9.37;7.50;;;12.80;1.00;;;;;;5058215;28;20460;-78
2023/05/28 02:08:49;;;;;;;17.30;7.80;;;12.70;1.00;;;;;;5041403;28;20543;-78
2023/05/28 02:11:16;;;;;;;9.47;7.60;;;12.70;1.00;;;;;;5042339;28;20503;-79
2023/05/28 02:13:44;;;;;;;12.57;8.10;;;12.70;1.00;;;;;;5058816;28;20509;-78
2023/05/28 02:16:17;;;;;;;14.00;7.80;;;12.70;1.00;;;;;;5040748;28;20510;-78
2023/05/28 02:18:44;;;;;;;12.37;7.63;;;12.70;1.00;;;;;;5026518;28;20497;-77
2023/05/28 02:21:11;;;;;;;10.43;7.30;;;12.70;1.00;;;;;;5039631;28;20457;-80
2023/05/28 02:23:40;;;;;;;14.50;8.47;;;12.60;1.00;;;;;;5056942;28;20452;-77
2023/05/28 02:26:07;;;;;;;9.77;6.97;;;12.60;1.00;;;;;;5050070;28;20443;-81
2023/05/28 02:28:34;;;;;;;11.13;6.83;;;12.60;1.00;;;;;;5041990;28;20578;-79
2023/05/28 02:31:02;;;;;;;10.23;6.20;;;12.50;1.00;;;;;;5045975;28;20457;-81
2023/05/28 02:33:29;;;;;;;12.00;6.40;;;12.50;1.00;;;;;;5041096;28;20465;-81
2023/05/28 02:35:56;;;;;;;8.00;6.40;;;12.50;1.00;;;;;;5045360;28;20482;-81
2023/05/28 02:38:23;;;;;;;8.77;5.87;;;12.50;1.00;;;;;;5040087;28;20547;-81
2023/05/28 02:40:50;;;;;;;11.50;6.03;;;12.40;1.00;;;;;;5041331;28;22215;-80
2023/05/28 02:43:16;;;;;;;10.50;6.50;;;12.40;1.00;;;;;;5040847;28;20458;-81
2023/05/28 02:45:43;;;;;;;8.83;6.30;;;12.30;1.00;;;;;;5047814;28;20974;-81
2023/05/28 02:48:11;;;;;;;11.03;6.10;;;12.30;1.00;;;;;;5042254;28;20456;-78
2023/05/28 02:50:38;;;;;;;9.23;6.13;;;12.30;1.00;;;;;;5040572;28;20452;-77
2023/05/28 02:53:05;;;;;;;12.83;6.13;;;12.30;1.00;;;;;;5057834;28;20547;-80
2023/05/28 02:55:32;;;;;;;9.33;6.27;;;12.30;1.00;;;;;;5050505;28;20826;-79
2023/05/28 02:57:59;;;;;;;11.10;6.50;;;12.20;1.00;;;;;;5053028;28;20455;-81
2023/05/28 03:00:26;;;;;;;11.50;6.70;;;12.20;1.00;;;;;;5054036;28;20471;-80
2023/05/28 03:02:53;;;;;;;11.03;6.40;;;12.20;1.00;;;;;;5057647;28;20864;-79
2023/05/28 03:05:21;;;;;;;10.97;6.53;;;12.20;1.00;;;;;;5045962;28;20542;-79
2023/05/28 03:07:48;;;;;;;10.00;6.43;;;12.10;1.00;;;;;;5051575;28;20843;-79
2023/05/28 03:10:15;;;;;;;11.50;6.13;;;12.10;1.00;;;;;;5042052;28;20551;-78
2023/05/28 03:12:41;;;;;;;10.53;5.70;;;12.10;1.00;;;;;;5044024;28;20456;-79
2023/05/28 03:15:09;;;;;;;10.00;5.77;;;12.00;1.00;;;;;;5049519;28;20610;-82
2023/05/28 03:17:36;;;;;;;7.70;5.93;;;12.00;6.90;;;;;;5058133;28;20516;-81
2023/05/28 03:20:03;;;;;;;10.60;7.67;;;12.00;18.30;;;;;;5055041;28;20472;-79
2023/05/28 03:22:32;;;;;;;8.83;5.83;;;12.00;28.70;;;;;;5044813;28;20539;-79
2023/05/28 03:24:58;;;;;;;9.67;5.67;;;12.00;28.20;;;;;;5054828;28;20524;-81
2023/05/28 03:27:25;;;;;;;16.07;7.37;;;12.00;26.40;;;;;;5053496;28;20550;-79
2023/05/28 03:29:52;;;;;;;10.37;6.70;;;12.00;26.10;;;;;;5048544;28;20481;-80
2023/05/28 03:32:19;;;;;;;15.57;7.63;;;12.00;29.30;;;;;;5032946;28;20480;-79
2023/05/28 03:34:46;;;;;;;9.33;6.00;;;12.00;22.60;;;;;;5048449;28;20458;-80
2023/05/28 03:37:13;;;;;;;9.33;5.80;;;12.00;29.50;;;;;;5050979;28;21021;-79
2023/05/28 03:39:41;;;;;;;8.40;6.53;;;12.00;30.60;;;;;;5050773;28;20483;-80
2023/05/28 03:42:08;;;;;;;11.00;6.90;;;12.00;37.00;;;;;;5037614;28;20478;-81
2023/05/28 03:44:35;;;;;;;9.17;6.57;;;12.00;34.10;;;;;;5038185;28;20942;-80
2023/05/28 03:47:02;;;;;;;11.83;6.37;;;12.10;56.30;;;;;;5037886;28;20447;-80
2023/05/28 03:49:29;;;;;;;10.87;7.30;;;12.10;42.60;;;;;;5038779;28;20487;-80
2023/05/28 03:51:56;;;;;;;12.03;6.50;;;12.10;32.40;;;;;;5036235;28;20471;-80
2023/05/28 03:54:23;;;;;;;11.10;6.53;;;12.00;29.50;;;;;;5047031;28;20448;-79
2023/05/28 03:56:51;;;;;;;9.03;6.00;;;12.00;45.30;;;;;;5057011;28;20483;-81
2023/05/28 03:59:18;;;;;;;11.10;6.57;;;12.00;39.90;;;;;;5051877;28;20475;-80
2023/05/28 04:01:45;;;;;;;18.87;7.27;;;12.00;37.50;;;;;;5054048;28;20520;-80
2023/05/28 04:04:11;;;;;;;12.80;7.07;;;12.00;57.50;;;;;;5041812;28;20453;-80
2023/05/28 04:06:38;;;;;;;9.63;6.40;;;12.00;69.90;;;;;;5037359;28;20458;-79
2023/05/28 04:09:05;;;;;;;11.73;6.60;;;12.00;64.90;;;;;;5038158;28;20571;-79
2023/05/28 04:11:34;;;;;;;9.57;6.73;;;12.00;78.30;;;;;;5054690;28;20463;-79
2023/05/28 04:14:02;;;;;;;13.60;7.20;;;12.10;83.50;;;;;;5053095;28;20490;-79
2023/05/28 04:16:30;;;;;;;9.50;7.07;;;12.10;99.90;;;;;;5035175;28;20485;-80
2023/05/28 04:18:57;;;;;;;11.30;7.53;;;12.10;99.90;;;;;;5037185;28;21024;-81
2023/05/28 04:21:24;;;;;;;10.83;6.20;;;12.20;95.70;;;;;;5057250;28;20508;-80
2023/05/28 04:23:51;;;;;;;10.33;6.37;;;12.20;96.30;;;;;;5051600;28;20482;-81
2023/05/28 04:26:22;;;;;;;14.63;8.03;;;12.20;93.70;;;;;;5038414;28;20551;-80
2023/05/28 04:28:48;;;;;;;11.10;5.93;;;12.30;90.50;;;;;;5046978;28;20555;-80
2023/05/28 04:31:17;;;;;;;12.77;6.83;;;12.20;84.60;;;;;;5052635;28;20460;-79
2023/05/28 04:33:46;;;;;;;14.50;6.30;;;12.30;85.00;;;;;;5053442;28;20544;-81
2023/05/28 04:36:14;;;;;;;12.90;6.90;;;12.30;81.70;;;;;;5043196;28;20484;-77
2023/05/28 04:38:47;;;;;;;10.73;6.87;;;12.40;90.70;;;;;;5040228;28;20487;-76
2023/05/28 04:41:14;;;;;;;11.97;6.97;;;12.40;76.40;;;;;;5025682;28;20838;-79
2023/05/28 04:43:42;;;;;;;9.33;6.30;;;12.50;71.20;;;;;;5059088;28;21040;-79
2023/05/28 04:46:09;;;;;;;11.00;6.40;;;12.50;69.70;;;;;;5053794;28;20463;-79
2023/05/28 04:48:37;;;;;;;10.70;7.27;;;12.60;57.00;;;;;;5055334;28;20471;-81
2023/05/28 04:51:05;;;;;;;12.63;7.00;;;12.60;47.10;;;;;;5057868;28;20463;-80
2023/05/28 04:53:33;;;;;;;10.77;7.17;;;12.70;53.20;;;;;;5041547;28;20469;-79
2023/05/28 04:56:00;;;;;;;11.40;7.70;;;12.80;36.90;;;;;;5048725;28;20462;-81
2023/05/28 04:58:27;;;;;;;10.40;7.00;;;12.80;17.10;;;;;;5038043;28;20452;-79
2023/05/28 05:00:55;;;;;;;12.20;8.40;;;12.80;12.10;;;;;;5048851;28;20531;-79
2023/05/28 05:03:22;;;;;;;13.57;7.57;;;12.90;17.20;;;;;;5038416;28;20457;-79
2023/05/28 05:05:50;;;;;;;10.70;7.20;;;13.00;6.40;;;;;;5041182;28;20477;-79
2023/05/28 05:08:17;;;;;;;13.50;7.60;;;13.10;1.00;;;;;;5039064;28;20491;-80
2023/05/28 05:10:44;;;;;;;10.47;7.70;;;13.10;1.00;;;;;;5051948;28;20939;-78
2023/05/28 05:13:11;;;;;;;10.27;6.87;;;13.20;1.00;;;;;;5055024;28;20977;-80
2023/05/28 05:15:38;;;;;;;11.03;7.67;;;13.20;1.00;;;;;;5042216;28;20539;-78
2023/05/28 05:18:05;;;;;;;10.50;7.33;;;13.30;1.00;;;;;;5060518;28;20562;-79
2023/05/28 05:20:31;;;;;;;10.83;7.50;;;13.40;1.00;;;;;;5047633;28;20472;-80
2023/05/28 05:23:00;;;;;;;11.17;7.57;;;13.40;1.00;;;;;;5061322;28;20463;-81
2023/05/28 05:25:26;;;;;;;10.40;7.23;;;13.50;1.00;;;;;;5056155;28;20522;-79
2023/05/28 05:27:53;;;;;;;14.17;8.10;;;13.50;1.00;;;;;;5065177;28;20549;-79
2023/05/28 05:30:20;;;;;;;12.40;7.67;;;13.60;1.00;;;;;;5058651;28;20575;-78
2023/05/28 05:32:47;;;;;;;14.03;7.83;;;13.60;1.00;;;;;;5053578;28;20560;-78
2023/05/28 05:35:14;;;;;;;10.20;7.07;;;13.70;1.00;;;;;;5042931;28;20476;-78
2023/05/28 05:37:41;;;;;;;10.53;6.80;;;13.70;1.00;;;;;;5039262;28;20866;-78
2023/05/28 05:40:10;;;;;;;9.13;7.40;;;13.80;1.00;;;;;;5038828;28;20482;-78
2023/05/28 05:42:37;;;;;;;10.10;7.80;;;13.90;1.00;;;;;;5056199;28;20821;-78
2023/05/28 05:45:06;;;;;;;11.20;7.50;;;13.90;1.00;;;;;;5044229;28;20466;-79
2023/05/28 05:47:32;;;;;;;9.27;6.23;;;14.00;1.00;;;;;;5039211;28;20463;-79
2023/05/28 05:49:59;;;;;;;10.27;5.73;;;14.10;1.00;;;;;;5049630;28;20557;-80
2023/05/28 05:52:26;;;;;;;12.10;7.30;;;14.20;1.00;;;;;;5037352;28;20455;-81
2023/05/28 05:54:53;;;;;;;10.93;7.00;;;14.20;1.00;;;;;;5039149;28;20462;-82
2023/05/28 05:57:22;;;;;;;13.93;9.30;;;14.30;1.00;;;;;;5045037;28;20495;-81
2023/05/28 05:59:48;;;;;;;10.77;6.57;;;14.40;1.00;;;;;;5045405;28;20483;-82
2023/05/28 06:02:15;;;;;;;10.93;6.90;;;14.40;99.90;;;;;;5041775;28;20474;-80
2023/05/28 06:04:42;;;;;;;8.50;5.63;;;14.50;99.90;;;;;;5049502;28;20448;-81
2023/05/28 06:07:09;;;;;;;11.30;6.73;;;14.60;99.90;;;;;;5041059;28;20524;-82
2023/05/28 06:09:36;;;;;;;13.47;7.87;;;14.60;99.90;;;;;;5041788;28;20571;-82
2023/05/28 06:12:03;;;;;;;11.07;7.03;;;14.70;99.90;;;;;;5057464;28;20541;-81
2023/05/28 06:14:32;;;;;;;9.77;6.53;;;14.80;99.90;;;;;;5045318;28;20492;-82
2023/05/28 06:16:59;;;;;;;18.10;8.67;;;14.80;99.90;;;;;;5059119;28;20494;-81
2023/05/28 06:19:26;;;;;;;9.90;7.20;;;14.90;99.20;;;;;;5043467;28;20540;-80
2023/05/28 06:21:53;;;;;;;10.30;6.37;;;15.00;1.00;;;;;;5041546;28;20496;-82
2023/05/28 06:24:20;;;;;;;13.80;6.97;;;15.10;72.70;;;;;;5053895;28;20523;-82
2023/05/28 06:26:47;;;;;;;8.73;6.57;;;15.10;1.00;;;;;;5061666;28;20454;-82
2023/05/28 06:29:13;;;;;;;10.97;7.27;;;15.20;1.00;;;;;;5046020;28;20548;-82
2023/05/28 06:31:42;;;;;;;9.40;6.50;;;15.30;1.00;;;;;;5043766;28;20499;-80
2023/05/28 06:34:08;;;;;;;16.53;8.27;;;15.40;1.00;;;;;;5046112;28;20491;-82
2023/05/28 06:36:36;;;;;;;12.40;6.30;;;15.40;1.00;;;;;;5053340;28;20452;-82
2023/05/28 06:39:05;;;;;;;13.30;6.70;;;15.50;99.90;;;;;;5053079;28;20839;-81
2023/05/28 06:41:33;;;;;;;12.70;6.60;;;15.60;1.00;;;;;;5049046;28;20551;-81
2023/05/28 06:44:01;;;;;;;10.43;6.67;;;15.70;99.90;;;;;;5057551;28;20554;-83
2023/05/28 06:46:32;;;;;;;9.27;6.07;;;15.80;99.90;;;;;;5049860;28;20552;-82
2023/05/28 06:49:06;;;;;;;11.00;6.60;;;15.90;99.90;;;;;;5062879;22;20505;-84
2023/05/28 06:51:42;;;;;;;11.97;6.63;;;16.10;1.00;;;;;;5020325;28;20524;-83
2023/05/28 06:54:09;;;;;;;8.20;5.20;;;16.20;99.90;;;;;;5019471;28;20449;-81
2023/05/28 06:56:40;;;;;;;8.73;5.87;;;16.20;99.90;;;;;;5022202;28;20467;-82
2023/05/28 06:59:07;;;;;;;11.13;6.23;;;16.30;90.00;;;;;;5021438;28;20505;-82
2023/05/28 07:01:43;;;;;;;10.17;6.33;;;16.30;99.90;;;;;;5021263;28;20549;-84
2023/05/28 07:04:11;;;;;;;7.47;5.03;;;16.30;1.00;;;;;;5018178;28;20473;-82
2023/05/28 07:06:40;;;;;;;8.97;5.80;;;16.40;99.90;;;;;;5020836;28;20521;-81
2023/05/28 07:09:06;;;;;;;12.83;6.20;;;16.40;99.90;;;;;;5022449;28;20540;-81
2023/05/28 07:11:33;;;;;;;10.83;6.43;;;16.40;1.00;;;;;;5010120;28;20459;-82
2023/05/28 07:14:00;;;;;;;9.60;6.57;;;16.50;1.00;;;;;;5023161;28;20565;-83
2023/05/28 07:16:27;;;;;;;11.07;6.53;;;16.60;1.00;;;;;;5024406;28;20459;-81
2023/05/28 07:18:54;;;;;;;10.90;6.13;;;16.70;1.00;;;;;;5024181;28;20574;-82
2023/05/28 07:21:22;;;;;;;11.93;6.90;;;16.70;99.90;;;;;;5021452;28;20848;-82
2023/05/28 07:23:49;;;;;;;13.13;6.77;;;16.80;99.90;;;;;;5016574;28;20480;-83
2023/05/28 07:26:15;;;;;;;10.40;6.27;;;16.90;14.10;;;;;;5017780;28;20562;-82
2023/05/28 07:28:42;;;;;;;11.80;5.90;;;17.00;1.00;;;;;;5015249;28;20471;-83
2023/05/28 07:31:09;;;;;;;12.10;5.70;;;17.10;1.00;;;;;;5018399;28;20465;-83
2023/05/28 07:33:36;;;;;;;8.50;5.27;;;17.20;99.90;;;;;;5014974;28;20503;-83
2023/05/28 07:36:03;;;;;;;14.80;5.50;;;17.20;99.90;;;;;;5016217;28;20457;-82
2023/05/28 07:38:31;;;;;;;12.80;5.77;;;17.30;99.90;;;;;;5021384;28;20497;-83
2023/05/28 07:40:58;;;;;;;10.03;5.57;;;17.40;99.90;;;;;;5022210;28;20892;-82
2023/05/28 07:43:26;;;;;;;10.73;5.70;;;17.50;99.90;;;;;;5021745;28;20564;-84
2023/05/28 07:45:52;;;;;;;10.30;5.33;;;17.60;99.90;;;;;;5022646;28;20478;-83
2023/05/28 07:48:19;;;;;;;8.63;5.03;;;17.70;99.90;;;;;;5022269;28;20472;-82
2023/05/28 07:50:46;;;;;;;8.07;4.97;;;17.80;99.90;;;;;;5022497;28;20459;-82
2023/05/28 07:53:13;;;;;;;7.57;4.57;;;17.90;99.00;;;;;;5021301;28;20524;-83
2023/05/28 07:55:41;;;;;;;9.50;4.40;;;18.00;18.40;;;;;;5021605;28;20548;-82
2023/05/28 07:58:08;;;;;;;7.50;4.40;;;18.20;23.00;;;;;;5022855;28;20519;-81
2023/05/28 08:00:36;;;;;;;6.57;4.50;;;18.30;19.90;;;;;;5023623;28;20486;-81
2023/05/28 08:03:03;;;;;;;11.23;4.63;;;18.50;10.20;;;;;;5023077;28;20548;-80
2023/05/28 08:05:30;;;;;;;8.60;4.63;;;18.60;1.00;;;;;;5024089;28;20520;-82
2023/05/28 08:07:57;;;;;;;8.40;3.70;;;18.70;1.00;;;;;;5023216;28;20524;-82
2023/05/28 08:10:24;;;;;;;12.83;5.20;;;18.90;1.00;;;;;;5020496;28;20494;-83
2023/05/28 08:12:52;;;;;;;8.40;4.77;;;19.00;1.00;;;;;;5020331;28;20555;-81
2023/05/28 08:15:19;;;;;;;11.50;4.90;;;19.10;1.00;;;;;;5021133;28;20540;-81
2023/05/28 08:17:46;;;;;;;7.30;4.60;;;19.20;1.00;;;;;;5021736;28;20504;-82
2023/05/28 08:20:13;;;;;;;8.53;4.17;;;19.40;1.00;;;;;;5023507;28;20501;-82
2023/05/28 08:22:40;;;;;;;7.17;3.97;;;19.60;1.00;;;;;;5021353;28;20633;-81
2023/05/28 08:25:07;;;;;;;7.93;4.17;;;19.70;1.00;;;;;;5020208;28;20449;-82
2023/05/28 08:27:35;;;;;;;10.03;3.73;;;19.90;1.00;;;;;;5021172;28;20450;-82
2023/05/28 08:30:04;;;;;;;6.60;3.97;;;20.00;1.00;;;;;;5022757;28;20655;-81
2023/05/28 08:32:31;;;;;;;6.50;3.63;;;20.20;1.00;;;;;;5020917;28;20442;-81
2023/05/28 08:34:58;;;;;;;8.73;4.13;;;20.30;1.00;;;;;;5020742;28;20501;-82
2023/05/28 08:37:25;;;;;;;6.20;3.80;;;20.60;1.00;;;;;;5020999;28;20564;-83
2023/05/28 08:39:52;;;;;;;10.30;4.13;;;20.80;1.00;;;;;;5022234;28;20538;-83
2023/05/28 08:42:19;;;;;;;6.77;3.63;;;21.10;1.00;;;;;;5019810;28;20513;-83
2023/05/28 08:44:46;;;;;;;6.27;3.40;;;21.30;1.00;;;;;;5021137;28;20449;-82
2023/05/28 08:47:15;;;;;;;8.40;3.87;;;21.60;1.00;;;;;;5020567;28;20453;-85
2023/05/28 08:49:46;;;;;;;6.63;3.83;;;22.00;1.00;;;;;;5022477;28;20572;-83
2023/05/28 08:52:15;;;;;;;9.27;3.70;;;22.30;99.90;;;;;;5021873;28;20676;-83
2023/05/28 08:54:42;;;;;;;6.90;3.77;;;22.60;1.00;;;;;;5020633;28;20544;-83
2023/05/28 08:57:10;;;;;;;5.60;2.90;;;22.90;99.90;;;;;;5021184;28;21102;-83
2023/05/28 08:59:37;;;;;;;8.20;3.87;;;23.20;99.90;;;;;;5022857;28;20474;-83
2023/05/28 09:02:05;;;;;;;8.07;3.50;;;23.50;99.90;;;;;;5022377;28;20975;-83
2023/05/28 09:04:33;;;;;;;6.57;3.40;;;23.60;99.90;;;;;;5020304;28;20586;-82
2023/05/28 09:06:59;;;;;;;8.70;3.33;;;23.70;99.90;;;;;;5022251;28;21141;-84
2023/05/28 09:09:27;;;;;;;6.00;3.30;;;23.80;99.90;;;;;;5022666;28;20469;-83
2023/05/28 09:11:58;;;;;;;7.00;3.33;;;23.90;99.90;;;;;;5020635;28;20492;-84
2023/05/28 09:14:25;;;;;;;8.90;3.97;;;24.00;99.90;;;;;;5024853;28;20485;-82
2023/05/28 09:16:52;;;;;;;9.03;4.00;;;24.10;99.90;;;;;;5027242;28;20859;-85
2023/05/28 09:19:19;;;;;;;8.23;3.50;;;24.00;99.90;;;;;;5027312;28;20505;-83
2023/05/28 09:21:55;;;;;;;7.10;3.30;;;24.20;99.90;;;;;;5026185;28;20504;-82
2023/05/28 09:24:24;;;;;;;9.90;3.50;;;24.30;99.90;;;;;;5027323;28;20513;-83
2023/05/28 09:26:51;;;;;;;8.27;3.77;;;24.40;99.90;;;;;;5029076;28;20508;-83
2023/05/28 09:29:20;;;;;;;7.07;3.43;;;24.50;99.90;;;;;;5028506;28;20472;-83
2023/05/28 09:31:55;;;;;;;8.10;2.90;;;24.50;99.90;;;;;;5029191;28;20464;-83
2023/05/28 09:34:26;;;;;;;7.83;3.57;;;24.60;99.90;;;;;;5026015;28;20452;-83
2023/05/28 09:36:59;;;;;;;9.20;3.47;;;24.60;99.90;;;;;;5030643;28;20531;-83
2023/05/28 09:39:28;;;;;;;4.90;3.20;;;24.70;99.90;;;;;;5030524;28;20557;-83
2023/05/28 09:42:05;;;;;;;7.17;3.87;;;24.80;99.90;;;;;;5026225;28;20463;-83
2023/05/28 09:44:41;;;;;;;9.53;3.07;;;24.90;99.90;;;;;;5024134;28;20441;-83
2023/05/28 09:47:18;;;;;;;11.10;3.70;;;25.10;99.90;;;;;;5028977;28;20453;-84
2023/05/28 09:49:49;;;;;;;5.37;2.93;;;25.20;99.90;;;;;;5027236;28;20497;-84
2023/05/28 09:52:20;;;;;;;7.60;4.00;;;25.40;99.90;;;;;;5029127;28;20465;-82
2023/05/28 09:54:49;;;;;;;7.50;3.03;;;25.70;99.90;;;;;;5027879;28;20438;-84
2023/05/28 09:57:18;;;;;;;6.00;2.93;;;26.00;99.90;;;;;;5022572;28;20921;-83
2023/05/28 09:59:47;;;;;;;6.00;2.80;;;26.10;99.90;;;;;;5026686;28;20528;-84
2023/05/28 10:02:26;;;;;;;5.87;3.13;;;26.30;99.90;;;;;;5028003;28;20457;-81
2023/05/28 10:04:55;;;;;;;7.30;3.67;;;26.60;99.90;;;;;;5027720;28;20461;-83
2023/05/28 10:07:26;;;;;;;6.63;3.10;;;26.90;99.90;;;;;;5024256;28;20465;-84
2023/05/28 10:09:55;;;;;;;4.30;3.03;;;27.20;99.90;;;;;;5031307;28;20477;-83
2023/05/28 10:12:26;;;;;;;7.40;2.87;;;27.50;99.90;;;;;;5029667;28;20450;-83
2023/05/28 10:14:53;;;;;;;5.53;3.53;;;27.70;99.90;;;;;;5025039;28;21025;-84
2023/05/28 10:17:21;;;;;;;7.73;3.60;;;27.70;99.90;;;;;;5031628;28;20529;-84
2023/05/28 10:19:49;;;;;;;7.20;3.50;;;27.70;99.90;;;;;;5030775;28;20520;-83
2023/05/28 10:22:17;;;;;;;6.10;3.87;;;27.70;99.90;;;;;;5031835;28;20888;-82
2023/05/28 10:24:46;;;;;;;7.97;3.37;;;27.90;99.90;;;;;;5028363;28;20489;-83
2023/05/28 10:27:15;;;;;;;5.37;2.73;;;28.20;99.90;;;;;;5030032;28;20557;-83
2023/05/28 10:29:43;;;;;;;6.30;3.10;;;28.40;99.90;;;;;;5031843;28;20533;-84
2023/05/28 10:32:10;;;;;;;8.03;4.00;;;28.70;99.90;;;;;;5030338;28;20460;-82
2023/05/28 10:34:38;;;;;;;6.00;3.17;;;29.00;99.90;;;;;;5018901;28;20895;-82
2023/05/28 10:37:10;;;;;;;6.70;3.30;;;29.40;99.90;;;;;;5015701;28;20454;-84
2023/05/28 10:39:46;;;;;;;6.13;3.70;;;29.80;99.90;;;;;;5037374;22;20505;-79
2023/05/28 10:42:16;;;;;;;9.47;3.33;;;30.20;99.90;;;;;;5030914;28;20816;-79
2023/05/28 10:45:06;;;;;;;6.30;2.63;;;30.50;99.90;;;;;;5034837;28;20808;-79
2023/05/28 10:47:33;;;;;;;7.10;2.77;;;30.70;99.90;;;;;;5036491;28;20460;-79
2023/05/28 10:50:01;;;;;;;6.93;3.13;;;31.00;99.90;;;;;;5028161;28;20843;-78
2023/05/28 10:52:28;;;;;;;7.37;3.30;;;31.20;99.90;;;;;;5039255;28;20451;-78
2023/05/28 10:54:56;;;;;;;6.33;3.37;;;31.60;99.90;;;;;;5044251;28;20462;-80
2023/05/28 10:57:23;;;;;;;6.43;3.43;;;31.50;99.90;;;;;;5043999;28;20463;-78
2023/05/28 10:59:59;;;;;;;5.97;3.13;;;31.70;99.90;;;;;;5022715;28;20510;-77
2023/05/28 11:02:27;;;;;;;3.83;2.50;;;32.10;99.90;;;;;;5048680;28;20453;-81
2023/05/28 11:04:56;;;;;;;4.30;2.33;;;32.20;99.90;;;;;;5041413;28;20830;-79
2023/05/28 11:07:29;;;;;;;4.80;2.40;;;32.70;99.90;;;;;;5035303;28;20453;-80
2023/05/28 11:09:58;;;;;;;5.37;2.60;;;33.00;99.90;;;;;;5032169;28;20492;-79
2023/05/28 11:12:27;;;;;;;6.57;3.20;;;33.50;99.90;;;;;;5031911;28;20985;-79
2023/05/28 11:14:54;;;;;;;4.80;2.90;;;33.70;99.90;;;;;;5030894;28;20465;-79
2023/05/28 11:17:21;;;;;;;6.53;3.17;;;33.90;99.90;;;;;;5032080;28;20467;-80
2023/05/28 11:19:49;;;;;;;7.33;3.20;;;34.10;99.90;;;;;;5034955;28;20531;-79
2023/05/28 11:22:17;;;;;;;5.93;3.10;;;34.10;99.90;;;;;;5035361;28;20456;-78
2023/05/28 11:25:08;;;;;;;5.50;3.30;;;33.80;99.90;;;;;;5025417;28;20460;-78
2023/05/28 11:27:36;;;;;;;5.27;3.20;;;33.70;99.90;;;;;;5031031;28;20452;-78
2023/05/28 11:30:08;;;;;;;5.03;3.13;;;33.90;99.90;;;;;;5035940;28;20511;-78
2023/05/28 11:32:35;;;;;;;5.07;2.83;;;34.30;99.90;;;;;;5036892;28;20535;-79
2023/05/28 11:35:03;;;;;;;5.03;2.53;;;34.80;99.90;;;;;;5034854;28;20444;-79
2023/05/28 11:37:31;;;;;;;4.83;2.63;;;35.40;99.90;;;;;;5033703;28;20459;-78
2023/05/28 11:39:59;;;;;;;5.30;2.50;;;35.90;99.90;;;;;;5034050;28;20491;-82
2023/05/28 11:42:29;;;;;;;6.13;3.20;;;36.00;99.90;;;;;;5034370;28;20469;-78
2023/05/28 11:44:57;;;;;;;5.47;2.77;;;36.60;99.90;;;;;;5034775;28;20506;-79
2023/05/28 11:47:24;;;;;;;6.67;3.13;;;37.20;99.90;;;;;;5034787;28;20467;-78
2023/05/28 11:49:53;;;;;;;5.20;2.80;;;37.80;99.90;;;;;;5036563;28;20473;-79
2023/05/28 11:52:23;;;;;;;7.80;3.17;;;37.70;99.90;;;;;;5034913;28;20549;-78
2023/05/28 11:54:55;;;;;;;6.30;2.70;;;37.30;99.90;;;;;;5034064;28;20455;-79
2023/05/28 11:57:23;;;;;;;5.27;2.90;;;36.70;99.90;;;;;;5034967;28;20467;-78
2023/05/28 12:00:15;;;;;;;4.80;2.77;;;36.30;99.90;;;;;;5033885;28;20484;-78
2023/05/28 12:02:46;;;;;;;5.03;2.67;;;36.60;99.90;;;;;;5031114;28;20457;-79
2023/05/28 12:05:13;;;;;;;5.97;2.20;;;37.10;99.90;;;;;;5034425;28;20961;-79
2023/05/28 12:07:45;;;;;;;5.50;2.47;;;37.50;99.90;;;;;;5034213;28;20972;-80
2023/05/28 12:10:14;;;;;;;5.00;2.93;;;38.00;99.90;;;;;;5034403;28;20469;-78
2023/05/28 12:12:44;;;;;;;7.07;2.60;;;38.30;99.90;;;;;;5033868;28;20518;-78
2023/05/28 12:15:13;;;;;;;5.03;2.60;;;38.70;99.90;;;;;;5033518;28;20484;-79
2023/05/28 12:17:41;;;;;;;4.63;3.20;;;39.10;99.90;;;;;;5034159;28;21051;-79
2023/05/28 12:20:29;;;;;;;5.43;2.83;;;39.40;99.90;;;;;;5034375;28;20579;-80
2023/05/28 12:23:07;;;;;;;4.50;2.90;;;39.90;99.90;;;;;;5036491;28;20457;-80
2023/05/28 12:25:47;;;;;;;4.50;2.17;;;40.00;99.90;;;;;;5028175;28;20457;-79
2023/05/28 12:28:15;;;;;;;5.20;3.00;;;39.20;99.90;;;;;;5033598;28;20445;-81
2023/05/28 12:30:47;;;;;;;4.83;2.70;;;39.10;99.90;;;;;;5035455;28;20476;-80
2023/05/28 12:33:14;;;;;;;4.47;2.40;;;39.00;99.90;;;;;;5034503;28;20453;-80
2023/05/28 12:35:41;;;;;;;5.83;3.00;;;38.70;99.90;;;;;;5034891;28;20457;-79
2023/05/28 12:38:14;;;;;;;4.47;2.50;;;38.90;99.90;;;;;;5034755;28;20547;-79
2023/05/28 12:40:41;;;;;;;4.10;2.33;;;39.50;99.90;;;;;;5033397;28;20492;-79
2023/05/28 12:43:08;;;;;;;5.33;2.80;;;39.80;99.90;;;;;;5040380;28;20844;-82
2023/05/28 12:45:35;;;;;;;7.30;2.70;;;39.70;99.90;;;;;;5036776;28;20448;-80
2023/05/28 12:48:04;;;;;;;6.33;2.60;;;40.50;99.90;;;;;;5040608;28;20448;-81
2023/05/28 12:50:30;;;;;;;4.47;2.47;;;40.80;99.90;;;;;;5040184;28;21293;-80